sensor_id;sensor_type;location;lat;lon;timestamp;pressure;altitude;pressure_sealevel;temperature;humidity
79705;BME280;69940;53.120;8.764;2023-05-10T00:00:39;100799.00;;;16.78;79.24
79705;BME280;69940;53.120;8.764;2023-05-10T00:03:09;100797.00;;;16.75;79.06
79705;BME280;69940;53.120;8.764;2023-05-10T00:05:39;100795.00;;;16.72;79.06
79705;BME280;69940;53.120;8.764;2023-05-10T00:08:09;100793.00;;;16.69;79.08
79705;BME280;69940;53.120;8.764;2023-05-10T00:10:42;100790.00;;;16.67;79.06
79705;BME280;69940;53.120;8.764;2023-05-10T00:13:08;100789.00;;;16.64;78.61
79705;BME280;69940;53.120;8.764;2023-05-10T00:15:39;100787.00;;;16.60;78.72
79705;BME280;69940;53.120;8.764;2023-05-10T00:18:09;100784.00;;;16.55;78.79
79705;BME280;69940;53.120;8.764;2023-05-10T00:20:38;100781.00;;;16.52;78.79
79705;BME280;69940;53.120;8.764;2023-05-10T00:23:09;100780.00;;;16.50;78.59
79705;BME280;69940;53.120;8.764;2023-05-10T00:25:38;100779.00;;;16.46;78.26
79705;BME280;69940;53.120;8.764;2023-05-10T00:28:09;100778.00;;;16.42;78.19
79705;BME280;69940;53.120;8.764;2023-05-10T00:30:39;100777.00;;;16.38;77.84
79705;BME280;69940;53.120;8.764;2023-05-10T00:33:09;100775.00;;;16.35;77.37
79705;BME280;69940;53.120;8.764;2023-05-10T00:35:39;100774.00;;;16.33;76.94
79705;BME280;69940;53.120;8.764;2023-05-10T00:38:09;100772.00;;;16.31;76.32
79705;BME280;69940;53.120;8.764;2023-05-10T00:40:39;100769.00;;;16.29;76.09
79705;BME280;69940;53.120;8.764;2023-05-10T00:43:09;100767.00;;;16.26;75.82
79705;BME280;69940;53.120;8.764;2023-05-10T00:45:40;100765.00;;;16.24;74.22
79705;BME280;69940;53.120;8.764;2023-05-10T00:48:09;100763.00;;;16.22;72.60
79705;BME280;69940;53.120;8.764;2023-05-10T00:50:40;100761.00;;;16.19;72.34
79705;BME280;69940;53.120;8.764;2023-05-10T00:53:09;100760.00;;;16.17;71.77
79705;BME280;69940;53.120;8.764;2023-05-10T00:55:39;100758.00;;;16.15;71.78
79705;BME280;69940;53.120;8.764;2023-05-10T00:58:09;100758.00;;;16.13;71.47
79705;BME280;69940;53.120;8.764;2023-05-10T01:00:41;100757.00;;;16.09;70.13
79705;BME280;69940;53.120;8.764;2023-05-10T01:03:09;100755.00;;;16.04;70.32
79705;BME280;69940;53.120;8.764;2023-05-10T01:05:38;100753.00;;;15.99;69.63
79705;BME280;69940;53.120;8.764;2023-05-10T01:08:09;100752.00;;;15.94;68.90
79705;BME280;69940;53.120;8.764;2023-05-10T01:10:38;100750.00;;;15.90;68.52
79705;BME280;69940;53.120;8.764;2023-05-10T01:13:09;100749.00;;;15.86;68.14
79705;BME280;69940;53.120;8.764;2023-05-10T01:15:39;100747.00;;;15.82;67.64
79705;BME280;69940;53.120;8.764;2023-05-10T01:18:09;100745.00;;;15.79;67.07
79705;BME280;69940;53.120;8.764;2023-05-10T01:20:43;100742.00;;;15.75;66.78
79705;BME280;69940;53.120;8.764;2023-05-10T01:23:22;100740.00;;;15.73;65.98
79705;BME280;69940;53.120;8.764;2023-05-10T01:33:30;100736.00;;;15.69;64.86
79705;BME280;69940;53.120;8.764;2023-05-10T01:35:46;100736.00;;;15.69;64.84
79705;BME280;69940;53.120;8.764;2023-05-10T01:38:17;100736.00;;;15.68;64.35
79705;BME280;69940;53.120;8.764;2023-05-10T01:40:44;100736.00;;;15.68;64.06
79705;BME280;69940;53.120;8.764;2023-05-10T01:43:17;100735.00;;;15.68;64.20
79705;BME280;69940;53.120;8.764;2023-05-10T01:46:02;100734.00;;;15.68;63.55
79705;BME280;69940;53.120;8.764;2023-05-10T01:48:10;100733.00;;;15.68;62.93
79705;BME280;69940;53.120;8.764;2023-05-10T01:50:42;100730.00;;;15.67;63.17
79705;BME280;69940;53.120;8.764;2023-05-10T01:53:10;100730.00;;;15.66;63.56
79705;BME280;69940;53.120;8.764;2023-05-10T01:55:46;100729.00;;;15.64;63.03
79705;BME280;69940;53.120;8.764;2023-05-10T01:58:11;100727.00;;;15.63;63.33
79705;BME280;69940;53.120;8.764;2023-05-10T02:00:46;100726.00;;;15.62;63.06
79705;BME280;69940;53.120;8.764;2023-05-10T02:03:10;100725.00;;;15.61;63.06
79705;BME280;69940;53.120;8.764;2023-05-10T02:05:41;100723.00;;;15.61;62.16
79705;BME280;69940;53.120;8.764;2023-05-10T02:08:09;100723.00;;;15.62;62.29
79705;BME280;69940;53.120;8.764;2023-05-10T02:10:39;100723.00;;;15.62;61.96
79705;BME280;69940;53.120;8.764;2023-05-10T02:13:10;100722.00;;;15.62;61.63
79705;BME280;69940;53.120;8.764;2023-05-10T02:15:39;100722.00;;;15.62;61.79
79705;BME280;69940;53.120;8.764;2023-05-10T02:18:11;100720.00;;;15.62;61.61
79705;BME280;69940;53.120;8.764;2023-05-10T02:20:39;100718.00;;;15.63;61.34
79705;BME280;69940;53.120;8.764;2023-05-10T02:23:09;100717.00;;;15.64;60.34
79705;BME280;69940;53.120;8.764;2023-05-10T02:25:41;100717.00;;;15.66;59.95
79705;BME280;69940;53.120;8.764;2023-05-10T02:28:10;100717.00;;;15.66;59.77
79705;BME280;69940;53.120;8.764;2023-05-10T02:30:39;100717.00;;;15.66;60.28
79705;BME280;69940;53.120;8.764;2023-05-10T02:33:09;100717.00;;;15.66;60.44
79705;BME280;69940;53.120;8.764;2023-05-10T02:35:40;100717.00;;;15.65;60.74
79705;BME280;69940;53.120;8.764;2023-05-10T02:38:10;100718.00;;;15.64;60.90
79705;BME280;69940;53.120;8.764;2023-05-10T02:40:40;100718.00;;;15.64;60.76
79705;BME280;69940;53.120;8.764;2023-05-10T02:43:12;100719.00;;;15.63;60.90
79705;BME280;69940;53.120;8.764;2023-05-10T02:45:42;100719.00;;;15.63;61.05
79705;BME280;69940;53.120;8.764;2023-05-10T02:48:09;100718.00;;;15.63;61.17
79705;BME280;69940;53.120;8.764;2023-05-10T02:50:42;100718.00;;;15.62;61.03
79705;BME280;69940;53.120;8.764;2023-05-10T02:53:11;100719.00;;;15.61;60.47
79705;BME280;69940;53.120;8.764;2023-05-10T02:55:40;100718.00;;;15.61;60.17
79705;BME280;69940;53.120;8.764;2023-05-10T02:58:08;100718.00;;;15.62;59.59
79705;BME280;69940;53.120;8.764;2023-05-10T03:00:39;100718.00;;;15.64;59.20
79705;BME280;69940;53.120;8.764;2023-05-10T03:03:08;100719.00;;;15.66;59.78
79705;BME280;69940;53.120;8.764;2023-05-10T03:05:38;100719.00;;;15.68;59.90
79705;BME280;69940;53.120;8.764;2023-05-10T03:08:09;100719.00;;;15.69;60.64
79705;BME280;69940;53.120;8.764;2023-05-10T03:11:05;100720.00;;;15.69;61.69
79705;BME280;69940;53.120;8.764;2023-05-10T03:13:35;100721.00;;;15.67;62.08
79705;BME280;69940;53.120;8.764;2023-05-10T03:18:15;100723.00;;;15.61;62.03
79705;BME280;69940;53.120;8.764;2023-05-10T03:20:42;100722.00;;;15.57;62.40
79705;BME280;69940;53.120;8.764;2023-05-10T03:23:14;100721.00;;;15.54;62.34
79705;BME280;69940;53.120;8.764;2023-05-10T03:25:39;100720.00;;;15.52;62.22
79705;BME280;69940;53.120;8.764;2023-05-10T03:28:08;100718.00;;;15.50;62.17
79705;BME280;69940;53.120;8.764;2023-05-10T03:30:39;100717.00;;;15.49;62.05
79705;BME280;69940;53.120;8.764;2023-05-10T03:33:09;100716.00;;;15.48;62.14
79705;BME280;69940;53.120;8.764;2023-05-10T03:35:39;100715.00;;;15.46;62.36
79705;BME280;69940;53.120;8.764;2023-05-10T03:38:09;100714.00;;;15.45;62.36
79705;BME280;69940;53.120;8.764;2023-05-10T03:40:39;100714.00;;;15.44;62.80
79705;BME280;69940;53.120;8.764;2023-05-10T03:43:08;100713.00;;;15.43;62.77
79705;BME280;69940;53.120;8.764;2023-05-10T03:45:38;100713.00;;;15.42;63.12
79705;BME280;69940;53.120;8.764;2023-05-10T03:48:09;100712.00;;;15.40;63.17
79705;BME280;69940;53.120;8.764;2023-05-10T03:50:38;100712.00;;;15.39;63.23
79705;BME280;69940;53.120;8.764;2023-05-10T03:53:09;100712.00;;;15.37;63.26
79705;BME280;69940;53.120;8.764;2023-05-10T03:55:38;100712.00;;;15.36;63.41
79705;BME280;69940;53.120;8.764;2023-05-10T03:58:11;100711.00;;;15.34;63.83
79705;BME280;69940;53.120;8.764;2023-05-10T04:00:46;100711.00;;;15.33;64.18
79705;BME280;69940;53.120;8.764;2023-05-10T04:03:10;100711.00;;;15.31;64.13
79705;BME280;69940;53.120;8.764;2023-05-10T04:05:39;100710.00;;;15.29;64.43
79705;BME280;69940;53.120;8.764;2023-05-10T04:08:09;100709.00;;;15.26;64.35
79705;BME280;69940;53.120;8.764;2023-05-10T04:10:38;100709.00;;;15.24;64.32
79705;BME280;69940;53.120;8.764;2023-05-10T04:13:08;100708.00;;;15.22;65.04
79705;BME280;69940;53.120;8.764;2023-05-10T04:15:39;100708.00;;;15.20;64.72
79705;BME280;69940;53.120;8.764;2023-05-10T04:18:09;100709.00;;;15.16;65.33
79705;BME280;69940;53.120;8.764;2023-05-10T04:20:38;100709.00;;;15.12;66.44
79705;BME280;69940;53.120;8.764;2023-05-10T04:23:09;100711.00;;;15.07;66.41
79705;BME280;69940;53.120;8.764;2023-05-10T04:25:38;100713.00;;;15.02;66.99
79705;BME280;69940;53.120;8.764;2023-05-10T04:28:09;100715.00;;;14.98;66.67
79705;BME280;69940;53.120;8.764;2023-05-10T04:30:39;100715.00;;;14.95;66.21
79705;BME280;69940;53.120;8.764;2023-05-10T04:33:08;100714.00;;;14.93;66.03
79705;BME280;69940;53.120;8.764;2023-05-10T04:35:40;100715.00;;;14.92;65.80
79705;BME280;69940;53.120;8.764;2023-05-10T04:38:08;100715.00;;;14.92;65.81
79705;BME280;69940;53.120;8.764;2023-05-10T04:40:38;100715.00;;;14.92;65.86
79705;BME280;69940;53.120;8.764;2023-05-10T04:43:08;100716.00;;;14.93;66.18
79705;BME280;69940;53.120;8.764;2023-05-10T04:45:39;100718.00;;;14.92;66.34
79705;BME280;69940;53.120;8.764;2023-05-10T04:48:09;100720.00;;;14.90;66.75
79705;BME280;69940;53.120;8.764;2023-05-10T04:50:39;100722.00;;;14.88;67.35
79705;BME280;69940;53.120;8.764;2023-05-10T04:53:08;100724.00;;;14.86;67.32
79705;BME280;69940;53.120;8.764;2023-05-10T04:55:39;100726.00;;;14.85;68.27
79705;BME280;69940;53.120;8.764;2023-05-10T04:58:08;100730.00;;;14.85;68.74
79705;BME280;69940;53.120;8.764;2023-05-10T05:00:39;100732.00;;;14.85;68.70
79705;BME280;69940;53.120;8.764;2023-05-10T05:03:08;100740.00;;;14.85;68.40
79705;BME280;69940;53.120;8.764;2023-05-10T05:05:39;100746.00;;;14.84;67.79
79705;BME280;69940;53.120;8.764;2023-05-10T05:08:08;100752.00;;;14.84;67.90
79705;BME280;69940;53.120;8.764;2023-05-10T05:10:39;100753.00;;;14.83;68.27
79705;BME280;69940;53.120;8.764;2023-05-10T05:13:08;100755.00;;;14.83;68.49
79705;BME280;69940;53.120;8.764;2023-05-10T05:15:39;100757.00;;;14.82;68.23
79705;BME280;69940;53.120;8.764;2023-05-10T05:18:09;100758.00;;;14.80;68.38
79705;BME280;69940;53.120;8.764;2023-05-10T05:20:38;100759.00;;;14.79;68.31
79705;BME280;69940;53.120;8.764;2023-05-10T05:23:08;100761.00;;;14.78;68.97
79705;BME280;69940;53.120;8.764;2023-05-10T05:25:38;100763.00;;;14.77;69.11
79705;BME280;69940;53.120;8.764;2023-05-10T05:28:08;100764.00;;;14.76;69.47
79705;BME280;69940;53.120;8.764;2023-05-10T05:30:38;100767.00;;;14.75;69.72
79705;BME280;69940;53.120;8.764;2023-05-10T05:33:08;100770.00;;;14.73;69.96
79705;BME280;69940;53.120;8.764;2023-05-10T05:35:39;100770.00;;;14.72;70.02
79705;BME280;69940;53.120;8.764;2023-05-10T05:38:08;100771.00;;;14.70;70.42
79705;BME280;69940;53.120;8.764;2023-05-10T05:40:38;100773.00;;;14.69;71.15
79705;BME280;69940;53.120;8.764;2023-05-10T05:43:08;100776.00;;;14.69;71.98
79705;BME280;69940;53.120;8.764;2023-05-10T05:45:39;100779.00;;;14.69;72.19
79705;BME280;69940;53.120;8.764;2023-05-10T05:48:09;100781.00;;;14.69;72.45
79705;BME280;69940;53.120;8.764;2023-05-10T05:50:38;100781.00;;;14.68;73.14
79705;BME280;69940;53.120;8.764;2023-05-10T05:53:09;100782.00;;;14.64;73.47
79705;BME280;69940;53.120;8.764;2023-05-10T05:55:38;100783.00;;;14.59;73.66
79705;BME280;69940;53.120;8.764;2023-05-10T05:58:08;100784.00;;;14.53;73.28
79705;BME280;69940;53.120;8.764;2023-05-10T06:00:38;100787.00;;;14.49;74.00
79705;BME280;69940;53.120;8.764;2023-05-10T06:03:09;100789.00;;;14.48;74.70
79705;BME280;69940;53.120;8.764;2023-05-10T06:05:38;100791.00;;;14.48;75.06
79705;BME280;69940;53.120;8.764;2023-05-10T06:08:09;100794.00;;;14.48;75.04
79705;BME280;69940;53.120;8.764;2023-05-10T06:10:39;100797.00;;;14.45;75.42
79705;BME280;69940;53.120;8.764;2023-05-10T06:13:09;100800.00;;;14.42;75.81
79705;BME280;69940;53.120;8.764;2023-05-10T06:15:38;100803.00;;;14.40;76.09
79705;BME280;69940;53.120;8.764;2023-05-10T06:18:08;100806.00;;;14.39;76.20
79705;BME280;69940;53.120;8.764;2023-05-10T06:20:40;100810.00;;;14.40;76.23
79705;BME280;69940;53.120;8.764;2023-05-10T06:23:08;100813.00;;;14.41;76.01
79705;BME280;69940;53.120;8.764;2023-05-10T06:25:39;100816.00;;;14.42;76.40
79705;BME280;69940;53.120;8.764;2023-05-10T06:28:09;100818.00;;;14.44;76.78
79705;BME280;69940;53.120;8.764;2023-05-10T06:30:38;100821.00;;;14.46;76.74
79705;BME280;69940;53.120;8.764;2023-05-10T06:33:08;100823.00;;;14.47;76.80
79705;BME280;69940;53.120;8.764;2023-05-10T06:35:40;100826.00;;;14.47;77.20
79705;BME280;69940;53.120;8.764;2023-05-10T06:38:08;100829.00;;;14.47;77.45
79705;BME280;69940;53.120;8.764;2023-05-10T06:40:41;100831.00;;;14.47;77.70
79705;BME280;69940;53.120;8.764;2023-05-10T06:43:08;100834.00;;;14.48;77.74
79705;BME280;69940;53.120;8.764;2023-05-10T06:45:38;100835.00;;;14.47;77.59
79705;BME280;69940;53.120;8.764;2023-05-10T06:48:08;100837.00;;;14.45;77.53
79705;BME280;69940;53.120;8.764;2023-05-10T06:50:38;100838.00;;;14.44;77.61
79705;BME280;69940;53.120;8.764;2023-05-10T06:53:09;100838.00;;;14.43;77.67
79705;BME280;69940;53.120;8.764;2023-05-10T06:55:39;100839.00;;;14.44;77.73
79705;BME280;69940;53.120;8.764;2023-05-10T06:58:08;100841.00;;;14.45;77.81
79705;BME280;69940;53.120;8.764;2023-05-10T07:00:46;100843.00;;;14.47;78.06
79705;BME280;69940;53.120;8.764;2023-05-10T07:03:09;100846.00;;;14.49;77.97
79705;BME280;69940;53.120;8.764;2023-05-10T07:05:39;100849.00;;;14.51;78.26
79705;BME280;69940;53.120;8.764;2023-05-10T07:08:09;100853.00;;;14.53;78.31
79705;BME280;69940;53.120;8.764;2023-05-10T07:10:39;100857.00;;;14.57;78.74
79705;BME280;69940;53.120;8.764;2023-05-10T07:13:08;100861.00;;;14.61;78.78
79705;BME280;69940;53.120;8.764;2023-05-10T07:15:38;100862.00;;;14.67;78.90
79705;BME280;69940;53.120;8.764;2023-05-10T07:18:08;100865.00;;;14.73;79.08
79705;BME280;69940;53.120;8.764;2023-05-10T07:20:38;100868.00;;;14.79;79.17
79705;BME280;69940;53.120;8.764;2023-05-10T07:23:08;100871.00;;;14.85;79.20
79705;BME280;69940;53.120;8.764;2023-05-10T07:25:38;100874.00;;;14.91;79.39
79705;BME280;69940;53.120;8.764;2023-05-10T07:28:09;100876.00;;;14.96;79.53
79705;BME280;69940;53.120;8.764;2023-05-10T07:30:38;100879.00;;;15.03;79.40
79705;BME280;69940;53.120;8.764;2023-05-10T07:33:10;100881.00;;;15.10;79.37
79705;BME280;69940;53.120;8.764;2023-05-10T07:35:39;100883.00;;;15.19;79.26
79705;BME280;69940;53.120;8.764;2023-05-10T07:38:08;100885.00;;;15.27;79.25
79705;BME280;69940;53.120;8.764;2023-05-10T07:40:39;100885.00;;;15.32;79.07
79705;BME280;69940;53.120;8.764;2023-05-10T07:43:08;100886.00;;;15.36;79.50
79705;BME280;69940;53.120;8.764;2023-05-10T07:45:39;100887.00;;;15.37;79.44
79705;BME280;69940;53.120;8.764;2023-05-10T07:48:08;100889.00;;;15.37;79.74
79705;BME280;69940;53.120;8.764;2023-05-10T07:50:38;100890.00;;;15.38;79.83
79705;BME280;69940;53.120;8.764;2023-05-10T07:53:09;100889.00;;;15.39;79.98
79705;BME280;69940;53.120;8.764;2023-05-10T07:55:38;100891.00;;;15.40;80.13
79705;BME280;69940;53.120;8.764;2023-05-10T07:58:08;100892.00;;;15.43;80.05
79705;BME280;69940;53.120;8.764;2023-05-10T08:00:42;100893.00;;;15.46;79.75
79705;BME280;69940;53.120;8.764;2023-05-10T08:03:08;100894.00;;;15.49;79.81
79705;BME280;69940;53.120;8.764;2023-05-10T08:05:38;100896.00;;;15.55;79.66
79705;BME280;69940;53.120;8.764;2023-05-10T08:08:09;100899.00;;;15.64;79.25
79705;BME280;69940;53.120;8.764;2023-05-10T08:10:38;100901.00;;;15.73;78.85
79705;BME280;69940;53.120;8.764;2023-05-10T08:13:09;100903.00;;;15.82;78.68
79705;BME280;69940;53.120;8.764;2023-05-10T08:15:38;100904.00;;;15.90;78.35
79705;BME280;69940;53.120;8.764;2023-05-10T08:18:09;100905.00;;;15.99;77.90
79705;BME280;69940;53.120;8.764;2023-05-10T08:20:38;100907.00;;;16.08;77.54
79705;BME280;69940;53.120;8.764;2023-05-10T08:23:09;100909.00;;;16.17;77.09
79705;BME280;69940;53.120;8.764;2023-05-10T08:25:39;100911.00;;;16.23;77.35
79705;BME280;69940;53.120;8.764;2023-05-10T08:28:08;100913.00;;;16.29;77.43
79705;BME280;69940;53.120;8.764;2023-05-10T08:30:39;100915.00;;;16.34;77.14
79705;BME280;69940;53.120;8.764;2023-05-10T08:33:08;100917.00;;;16.39;76.90
79705;BME280;69940;53.120;8.764;2023-05-10T08:35:38;100918.00;;;16.44;76.86
79705;BME280;69940;53.120;8.764;2023-05-10T08:38:08;100918.00;;;16.47;76.81
79705;BME280;69940;53.120;8.764;2023-05-10T08:40:43;100919.00;;;16.49;76.90
79705;BME280;69940;53.120;8.764;2023-05-10T08:43:11;100917.00;;;16.50;76.94
79705;BME280;69940;53.120;8.764;2023-05-10T08:45:40;100918.00;;;16.50;76.93
79705;BME280;69940;53.120;8.764;2023-05-10T08:48:09;100919.00;;;16.50;77.28
79705;BME280;69940;53.120;8.764;2023-05-10T08:50:40;100922.00;;;16.53;77.42
79705;BME280;69940;53.120;8.764;2023-05-10T08:53:13;100925.00;;;16.59;76.68
79705;BME280;69940;53.120;8.764;2023-05-10T08:55:40;100927.00;;;16.65;75.82
79705;BME280;69940;53.120;8.764;2023-05-10T08:58:09;100930.00;;;16.71;74.88
79705;BME280;69940;53.120;8.764;2023-05-10T09:00:39;100934.00;;;16.77;74.31
79705;BME280;69940;53.120;8.764;2023-05-10T09:03:08;100935.00;;;16.83;73.97
79705;BME280;69940;53.120;8.764;2023-05-10T09:05:39;100939.00;;;16.88;74.20
79705;BME280;69940;53.120;8.764;2023-05-10T09:08:08;100941.00;;;16.93;73.41
79705;BME280;69940;53.120;8.764;2023-05-10T09:10:39;100945.00;;;16.96;73.28
79705;BME280;69940;53.120;8.764;2023-05-10T09:13:10;100948.00;;;16.98;73.13
79705;BME280;69940;53.120;8.764;2023-05-10T09:15:38;100950.00;;;16.99;73.29
79705;BME280;69940;53.120;8.764;2023-05-10T09:18:08;100954.00;;;16.98;73.30
79705;BME280;69940;53.120;8.764;2023-05-10T09:20:38;100957.00;;;16.99;73.46
79705;BME280;69940;53.120;8.764;2023-05-10T09:23:08;100959.00;;;17.01;73.36
79705;BME280;69940;53.120;8.764;2023-05-10T09:25:41;100962.00;;;17.06;73.30
79705;BME280;69940;53.120;8.764;2023-05-10T09:28:09;100963.00;;;17.10;72.74
79705;BME280;69940;53.120;8.764;2023-05-10T09:30:39;100965.00;;;17.14;73.32
79705;BME280;69940;53.120;8.764;2023-05-10T09:33:09;100967.00;;;17.16;73.47
79705;BME280;69940;53.120;8.764;2023-05-10T09:35:41;100969.00;;;17.17;73.14
79705;BME280;69940;53.120;8.764;2023-05-10T09:38:09;100970.00;;;17.15;73.10
79705;BME280;69940;53.120;8.764;2023-05-10T09:40:38;100972.00;;;17.14;73.10
79705;BME280;69940;53.120;8.764;2023-05-10T09:43:09;100974.00;;;17.12;73.57
79705;BME280;69940;53.120;8.764;2023-05-10T09:45:41;100974.00;;;17.10;73.35
79705;BME280;69940;53.120;8.764;2023-05-10T09:48:08;100976.00;;;17.08;73.57
79705;BME280;69940;53.120;8.764;2023-05-10T09:50:42;100977.00;;;17.10;73.49
79705;BME280;69940;53.120;8.764;2023-05-10T09:53:09;100979.00;;;17.12;73.35
79705;BME280;69940;53.120;8.764;2023-05-10T09:55:40;100980.00;;;17.15;72.91
79705;BME280;69940;53.120;8.764;2023-05-10T09:58:12;100982.00;;;17.18;72.76
79705;BME280;69940;53.120;8.764;2023-05-10T10:00:59;100983.00;;;17.20;72.68
79705;BME280;69940;53.120;8.764;2023-05-10T10:03:13;100985.00;;;17.19;72.66
79705;BME280;69940;53.120;8.764;2023-05-10T10:05:40;100985.00;;;17.20;72.73
79705;BME280;69940;53.120;8.764;2023-05-10T10:08:09;100986.00;;;17.22;72.38
79705;BME280;69940;53.120;8.764;2023-05-10T10:10:41;100988.00;;;17.24;72.38
79705;BME280;69940;53.120;8.764;2023-05-10T10:13:09;100990.00;;;17.24;72.49
79705;BME280;69940;53.120;8.764;2023-05-10T10:15:39;100992.00;;;17.21;72.85
79705;BME280;69940;53.120;8.764;2023-05-10T10:18:12;100994.00;;;17.17;73.60
79705;BME280;69940;53.120;8.764;2023-05-10T10:20:38;100996.00;;;17.14;73.95
79705;BME280;69940;53.120;8.764;2023-05-10T10:23:09;100997.00;;;17.16;73.77
79705;BME280;69940;53.120;8.764;2023-05-10T10:25:38;100998.00;;;17.18;73.05
79705;BME280;69940;53.120;8.764;2023-05-10T10:28:24;101000.00;;;17.23;72.97
79705;BME280;69940;53.120;8.764;2023-05-10T10:30:45;101002.00;;;17.29;72.49
79705;BME280;69940;53.120;8.764;2023-05-10T10:35:39;101003.00;;;17.42;72.70
79705;BME280;69940;53.120;8.764;2023-05-10T10:38:09;101005.00;;;17.48;72.11
79705;BME280;69940;53.120;8.764;2023-05-10T10:40:39;101003.00;;;17.54;71.91
79705;BME280;69940;53.120;8.764;2023-05-10T10:43:22;101002.00;;;17.58;71.54
79705;BME280;69940;53.120;8.764;2023-05-10T10:45:39;101002.00;;;17.63;71.03
79705;BME280;69940;53.120;8.764;2023-05-10T10:48:22;101003.00;;;17.68;71.00
79705;BME280;69940;53.120;8.764;2023-05-10T10:50:45;101004.00;;;17.73;70.68
79705;BME280;69940;53.120;8.764;2023-05-10T10:53:12;101003.00;;;17.79;70.72
79705;BME280;69940;53.120;8.764;2023-05-10T10:55:46;101002.00;;;17.85;70.74
79705;BME280;69940;53.120;8.764;2023-05-10T10:58:09;101002.00;;;17.91;70.83
79705;BME280;69940;53.120;8.764;2023-05-10T11:00:41;101002.00;;;17.96;70.43
79705;BME280;69940;53.120;8.764;2023-05-10T11:03:10;101003.00;;;18.01;69.57
79705;BME280;69940;53.120;8.764;2023-05-10T11:05:40;101004.00;;;18.03;69.30
79705;BME280;69940;53.120;8.764;2023-05-10T11:08:14;101005.00;;;18.04;69.46
79705;BME280;69940;53.120;8.764;2023-05-10T11:10:39;101007.00;;;18.04;69.74
79705;BME280;69940;53.120;8.764;2023-05-10T11:13:09;101009.00;;;18.02;69.90
79705;BME280;69940;53.120;8.764;2023-05-10T11:15:40;101010.00;;;18.01;70.37
79705;BME280;69940;53.120;8.764;2023-05-10T11:18:24;101011.00;;;18.01;70.56
79705;BME280;69940;53.120;8.764;2023-05-10T11:20:39;101015.00;;;18.03;70.05
79705;BME280;69940;53.120;8.764;2023-05-10T11:23:13;101016.00;;;18.08;69.52
79705;BME280;69940;53.120;8.764;2023-05-10T11:25:42;101016.00;;;18.13;69.98
79705;BME280;69940;53.120;8.764;2023-05-10T11:28:09;101016.00;;;18.18;69.12
79705;BME280;69940;53.120;8.764;2023-05-10T11:30:40;101015.00;;;18.20;69.49
79705;BME280;69940;53.120;8.764;2023-05-10T11:33:09;101017.00;;;18.19;69.76
79705;BME280;69940;53.120;8.764;2023-05-10T11:35:40;101019.00;;;18.16;70.25
79705;BME280;69940;53.120;8.764;2023-05-10T11:38:10;101020.00;;;18.13;70.24
79705;BME280;69940;53.120;8.764;2023-05-10T11:40:41;101023.00;;;18.11;70.06
79705;BME280;69940;53.120;8.764;2023-05-10T11:43:09;101024.00;;;18.10;69.77
79705;BME280;69940;53.120;8.764;2023-05-10T11:45:40;101026.00;;;18.11;70.10
79705;BME280;69940;53.120;8.764;2023-05-10T11:48:09;101029.00;;;18.10;70.52
79705;BME280;69940;53.120;8.764;2023-05-10T11:50:39;101033.00;;;18.06;71.30
79705;BME280;69940;53.120;8.764;2023-05-10T11:53:08;101038.00;;;17.99;71.80
79705;BME280;69940;53.120;8.764;2023-05-10T11:55:38;101042.00;;;17.89;72.89
79705;BME280;69940;53.120;8.764;2023-05-10T11:58:09;101045.00;;;17.80;73.11
79705;BME280;69940;53.120;8.764;2023-05-10T12:00:39;101047.00;;;17.71;73.77
79705;BME280;69940;53.120;8.764;2023-05-10T12:03:09;101050.00;;;17.64;74.08
79705;BME280;69940;53.120;8.764;2023-05-10T12:05:39;101052.00;;;17.61;74.65
79705;BME280;69940;53.120;8.764;2023-05-10T12:08:15;101055.00;;;17.60;74.41
79705;BME280;69940;53.120;8.764;2023-05-10T12:10:38;101057.00;;;17.59;74.31
79705;BME280;69940;53.120;8.764;2023-05-10T12:13:13;101058.00;;;17.58;74.55
79705;BME280;69940;53.120;8.764;2023-05-10T12:15:39;101060.00;;;17.58;74.94
79705;BME280;69940;53.120;8.764;2023-05-10T12:18:09;101063.00;;;17.62;75.05
79705;BME280;69940;53.120;8.764;2023-05-10T12:20:39;101064.00;;;17.63;74.41
79705;BME280;69940;53.120;8.764;2023-05-10T12:23:09;101066.00;;;17.62;75.05
79705;BME280;69940;53.120;8.764;2023-05-10T12:25:39;101069.00;;;17.58;75.66
79705;BME280;69940;53.120;8.764;2023-05-10T12:28:09;101073.00;;;17.52;75.47
79705;BME280;69940;53.120;8.764;2023-05-10T12:30:39;101075.00;;;17.46;75.09
79705;BME280;69940;53.120;8.764;2023-05-10T12:33:10;101078.00;;;17.44;75.00
79705;BME280;69940;53.120;8.764;2023-05-10T12:35:44;101080.00;;;17.45;74.89
79705;BME280;69940;53.120;8.764;2023-05-10T12:38:28;101081.00;;;17.50;74.20
79705;BME280;69940;53.120;8.764;2023-05-10T12:40:38;101084.00;;;17.53;73.58
79705;BME280;69940;53.120;8.764;2023-05-10T12:43:08;101087.00;;;17.56;73.62
79705;BME280;69940;53.120;8.764;2023-05-10T12:45:38;101090.00;;;17.55;73.92
79705;BME280;69940;53.120;8.764;2023-05-10T12:48:09;101093.00;;;17.51;73.86
79705;BME280;69940;53.120;8.764;2023-05-10T12:50:38;101097.00;;;17.46;74.30
79705;BME280;69940;53.120;8.764;2023-05-10T12:53:09;101100.00;;;17.42;74.30
79705;BME280;69940;53.120;8.764;2023-05-10T12:55:38;101104.00;;;17.39;74.48
79705;BME280;69940;53.120;8.764;2023-05-10T12:58:08;101106.00;;;17.41;74.62
79705;BME280;69940;53.120;8.764;2023-05-10T13:00:38;101111.00;;;17.44;74.09
79705;BME280;69940;53.120;8.764;2023-05-10T13:03:08;101113.00;;;17.45;73.59
79705;BME280;69940;53.120;8.764;2023-05-10T13:05:39;101116.00;;;17.43;73.73
79705;BME280;69940;53.120;8.764;2023-05-10T13:08:08;101121.00;;;17.38;73.77
79705;BME280;69940;53.120;8.764;2023-05-10T13:10:39;101122.00;;;17.32;73.63
79705;BME280;69940;53.120;8.764;2023-05-10T13:13:09;101126.00;;;17.27;73.63
79705;BME280;69940;53.120;8.764;2023-05-10T13:15:38;101128.00;;;17.22;73.69